Time;durP1;ratioP1;P1;durP2;ratioP2;P2;SDS_P1;SDS_P2;PMS_P1;PMS_P2;Temp;Humidity;BMP_temperature;BMP_pressure;BME280_temperature;BME280_humidity;BME280_pressure;Samples;Min_cycle;Max_cycle;Signal;HPM_P1;HPM_P2
2021/04/19 00:01:31;;;;;;;17.97;11.07;;;;;;;;;;5050874;28;20219;-66
2021/04/19 00:03:59;;;;;;;13.73;11.17;;;;;;;;;;5052371;28;20606;-66
2021/04/19 00:06:26;;;;;;;13.33;10.83;;;;;;;;;;5052575;28;20220;-66
2021/04/19 00:08:52;;;;;;;14.63;11.90;;;;;;;;;;5051891;28;20212;-66
2021/04/19 00:11:19;;;;;;;13.97;11.97;;;;;;;;;;5052612;28;20231;-66
2021/04/19 00:13:46;;;;;;;16.50;13.50;;;;;;;;;;5052395;28;20234;-66
2021/04/19 00:16:12;;;;;;;19.37;15.67;;;;;;;;;;5052095;28;20202;-66
2021/04/19 00:18:39;;;;;;;24.37;19.17;;;;;;;;;;5052108;28;20590;-65
2021/04/19 00:21:06;;;;;;;24.23;19.70;;;;;;;;;;5051887;28;20747;-65
2021/04/19 00:23:33;;;;;;;21.90;16.60;;;;;;;;;;5052069;28;20205;-65
2021/04/19 00:26:00;;;;;;;18.90;16.27;;;;;;;;;;5052136;28;20259;-65
2021/04/19 00:28:26;;;;;;;19.13;16.17;;;;;;;;;;5052039;28;20206;-66
2021/04/19 00:30:53;;;;;;;16.57;12.73;;;;;;;;;;5051491;28;20221;-66
2021/04/19 00:33:20;;;;;;;21.10;14.37;;;;;;;;;;5051996;28;20206;-66
2021/04/19 00:35:46;;;;;;;22.60;17.00;;;;;;;;;;5052503;28;20212;-65
2021/04/19 00:38:13;;;;;;;22.33;15.77;;;;;;;;;;5051353;28;20205;-66
2021/04/19 00:40:41;;;;;;;18.63;16.27;;;;;;;;;;5051849;28;20263;-66
2021/04/19 00:43:08;;;;;;;20.57;14.70;;;;;;;;;;5051939;28;20205;-66
2021/04/19 00:45:35;;;;;;;16.47;13.77;;;;;;;;;;5051502;28;20600;-66
2021/04/19 00:48:02;;;;;;;17.23;14.30;;;;;;;;;;5051532;28;20217;-66
2021/04/19 00:50:30;;;;;;;19.03;15.07;;;;;;;;;;5051133;28;20226;-66
2021/04/19 00:52:56;;;;;;;17.67;13.80;;;;;;;;;;5051839;28;20212;-66
2021/04/19 00:55:24;;;;;;;17.60;14.03;;;;;;;;;;5051666;28;20296;-66
2021/04/19 00:57:50;;;;;;;20.47;14.50;;;;;;;;;;5051349;28;20209;-66
2021/04/19 01:00:18;;;;;;;18.37;14.30;;;;;;;;;;5051723;28;20206;-66
2021/04/19 01:02:45;;;;;;;18.23;13.73;;;;;;;;;;5051491;28;20217;-64
2021/04/19 01:05:13;;;;;;;16.53;14.07;;;;;;;;;;5051490;28;20236;-64
2021/04/19 01:07:39;;;;;;;15.73;13.07;;;;;;;;;;5051531;28;20685;-66
2021/04/19 01:10:07;;;;;;;17.60;14.67;;;;;;;;;;5051438;28;20209;-66
2021/04/19 01:12:35;;;;;;;17.53;13.93;;;;;;;;;;5051847;28;20210;-66
2021/04/19 01:15:01;;;;;;;20.40;15.20;;;;;;;;;;5051277;28;20302;-66
2021/04/19 01:17:28;;;;;;;17.80;14.83;;;;;;;;;;5051379;28;20670;-66
2021/04/19 01:19:54;;;;;;;17.57;14.70;;;;;;;;;;5050772;28;20217;-65
2021/04/19 01:22:22;;;;;;;18.20;14.87;;;;;;;;;;5051670;28;20202;-66
2021/04/19 01:24:48;;;;;;;19.50;14.80;;;;;;;;;;5050849;28;20230;-65
2021/04/19 01:27:15;;;;;;;16.60;14.80;;;;;;;;;;5049854;28;20212;-66
2021/04/19 01:29:41;;;;;;;18.17;14.90;;;;;;;;;;5050472;28;20229;-66
2021/04/19 01:32:09;;;;;;;19.13;16.13;;;;;;;;;;5051041;28;20589;-65
2021/04/19 01:34:35;;;;;;;17.60;15.53;;;;;;;;;;5051444;28;20229;-65
2021/04/19 01:37:02;;;;;;;17.23;15.17;;;;;;;;;;5051437;28;20220;-66
2021/04/19 01:39:29;;;;;;;19.87;16.43;;;;;;;;;;5050666;28;20209;-66
2021/04/19 01:41:55;;;;;;;18.87;16.27;;;;;;;;;;5049388;28;20276;-66
2021/04/19 01:44:22;;;;;;;19.50;15.80;;;;;;;;;;5051726;28;20372;-66
2021/04/19 01:46:49;;;;;;;19.73;16.83;;;;;;;;;;5054499;28;20212;-66
2021/04/19 01:49:17;;;;;;;22.07;17.53;;;;;;;;;;5054474;28;20217;-65
2021/04/19 01:51:44;;;;;;;21.80;17.80;;;;;;;;;;5054876;28;20599;-66
2021/04/19 01:54:10;;;;;;;20.80;17.37;;;;;;;;;;5054894;28;20237;-65
2021/04/19 01:56:37;;;;;;;20.30;17.23;;;;;;;;;;5054715;28;20205;-65
2021/04/19 01:59:05;;;;;;;18.67;16.27;;;;;;;;;;5054321;28;20587;-66
2021/04/19 02:01:32;;;;;;;21.57;16.73;;;;;;;;;;5054556;28;20205;-65
2021/04/19 02:04:03;;;;;;;21.43;18.13;;;;;;;;;;5054284;28;20717;-65
2021/04/19 02:06:34;;;;;;;25.13;19.70;;;;;;;;;;5054740;28;20208;-65
2021/04/19 02:09:02;;;;;;;24.70;19.87;;;;;;;;;;5054150;28;20205;-66
2021/04/19 02:11:32;;;;;;;25.03;20.63;;;;;;;;;;5054448;28;20232;-66
2021/04/19 02:14:04;;;;;;;25.30;21.57;;;;;;;;;;5053913;28;20233;-66
2021/04/19 02:16:37;;;;;;;26.70;21.33;;;;;;;;;;5054706;28;20589;-66
2021/04/19 02:19:09;;;;;;;24.80;20.70;;;;;;;;;;5053725;28;20213;-66
2021/04/19 02:21:38;;;;;;;32.27;23.43;;;;;;;;;;5054388;28;20208;-66
2021/04/19 02:24:07;;;;;;;34.17;26.60;;;;;;;;;;5053862;28;20225;-66
2021/04/19 02:26:35;;;;;;;35.83;27.37;;;;;;;;;;5054218;28;20615;-66
2021/04/19 02:29:04;;;;;;;39.00;28.83;;;;;;;;;;5053987;28;20589;-66
2021/04/19 02:31:34;;;;;;;45.60;33.00;;;;;;;;;;5053973;28;20605;-66
2021/04/19 02:34:03;;;;;;;43.47;31.83;;;;;;;;;;5053934;28;20237;-65
2021/04/19 02:36:30;;;;;;;48.67;34.87;;;;;;;;;;5053915;28;20263;-65
2021/04/19 02:38:58;;;;;;;49.83;36.67;;;;;;;;;;5053630;28;20209;-66
2021/04/19 02:41:25;;;;;;;52.90;36.97;;;;;;;;;;5053858;28;20685;-65
2021/04/19 02:43:52;;;;;;;50.53;36.87;;;;;;;;;;5053829;28;20222;-66
2021/04/19 02:46:20;;;;;;;53.67;38.70;;;;;;;;;;5053986;28;20209;-66
2021/04/19 02:48:47;;;;;;;56.87;40.00;;;;;;;;;;5053595;28;20205;-66
2021/04/19 02:51:14;;;;;;;58.13;40.70;;;;;;;;;;5053735;28;20229;-66
2021/04/19 02:53:41;;;;;;;65.23;44.33;;;;;;;;;;5053229;28;20234;-66
2021/04/19 02:56:08;;;;;;;67.00;44.40;;;;;;;;;;5053791;28;20209;-66
2021/04/19 02:58:38;;;;;;;67.40;45.40;;;;;;;;;;5053363;28;20212;-66
2021/04/19 03:01:05;;;;;;;77.30;49.13;;;;;;;;;;5053329;28;20202;-66
2021/04/19 03:03:33;;;;;;;79.33;50.83;;;;;;;;;;5053370;28;20217;-65
2021/04/19 03:06:01;;;;;;;81.73;52.27;;;;;;;;;;5053246;28;20252;-65
2021/04/19 03:08:29;;;;;;;92.40;57.40;;;;;;;;;;5052985;28;20220;-66
2021/04/19 03:10:58;;;;;;;91.70;58.27;;;;;;;;;;5053265;28;20225;-66
2021/04/19 03:13:26;;;;;;;89.00;55.23;;;;;;;;;;5051255;28;20205;-66
2021/04/19 03:15:54;;;;;;;82.60;52.30;;;;;;;;;;5052408;28;20205;-65
2021/04/19 03:18:21;;;;;;;82.97;53.37;;;;;;;;;;5052538;28;20224;-66
2021/04/19 03:21:02;;;;;;;84.73;53.13;;;;;;;;;;5053448;28;20213;-66
2021/04/19 03:23:30;;;;;;;82.67;52.13;;;;;;;;;;5051796;28;20205;-66
2021/04/19 03:25:57;;;;;;;89.13;54.83;;;;;;;;;;5052200;28;20209;-66
2021/04/19 03:28:25;;;;;;;81.67;51.90;;;;;;;;;;5051845;28;20590;-66
2021/04/19 03:30:51;;;;;;;71.07;47.77;;;;;;;;;;5052660;28;20222;-66
2021/04/19 03:33:19;;;;;;;67.73;46.70;;;;;;;;;;5053089;28;20235;-66
2021/04/19 03:35:46;;;;;;;77.87;49.67;;;;;;;;;;5052967;28;20202;-66
2021/04/19 03:38:15;;;;;;;80.63;52.07;;;;;;;;;;5052895;28;20579;-66
2021/04/19 03:40:42;;;;;;;81.97;50.10;;;;;;;;;;5052521;28;20218;-66
2021/04/19 03:43:10;;;;;;;79.73;49.67;;;;;;;;;;5052743;28;20279;-66
2021/04/19 03:45:37;;;;;;;69.73;47.03;;;;;;;;;;5052512;28;20286;-66
2021/04/19 03:48:06;;;;;;;63.87;44.43;;;;;;;;;;5052365;28;20267;-66
2021/04/19 03:50:36;;;;;;;60.27;42.20;;;;;;;;;;5052535;28;20237;-66
2021/04/19 03:53:03;;;;;;;68.87;45.37;;;;;;;;;;5051416;28;20202;-66
2021/04/19 03:55:31;;;;;;;68.20;44.00;;;;;;;;;;5050656;28;20279;-66
2021/04/19 03:57:58;;;;;;;67.50;44.93;;;;;;;;;;5051138;28;20205;-66
2021/04/19 04:00:25;;;;;;;66.90;44.60;;;;;;;;;;5052472;28;20208;-66
2021/04/19 04:02:53;;;;;;;65.43;43.27;;;;;;;;;;5052783;28;20209;-66
2021/04/19 04:05:20;;;;;;;63.63;43.27;;;;;;;;;;5052089;28;20256;-66
2021/04/19 04:07:48;;;;;;;73.13;45.37;;;;;;;;;;5051298;28;20213;-66
2021/04/19 04:10:15;;;;;;;65.57;44.80;;;;;;;;;;5052020;28;20206;-66
2021/04/19 04:12:42;;;;;;;63.03;43.90;;;;;;;;;;5049540;28;20641;-66
2021/04/19 04:15:09;;;;;;;58.57;41.57;;;;;;;;;;5052030;28;20230;-66
2021/04/19 04:17:36;;;;;;;56.83;41.07;;;;;;;;;;5052265;28;20201;-67
2021/04/19 04:20:02;;;;;;;57.80;40.40;;;;;;;;;;5051751;28;20263;-66
2021/04/19 04:22:29;;;;;;;59.00;41.10;;;;;;;;;;5052283;28;20208;-66
2021/04/19 04:24:56;;;;;;;53.93;38.53;;;;;;;;;;5052375;28;20221;-66
2021/04/19 04:27:22;;;;;;;50.97;39.13;;;;;;;;;;5052215;28;20257;-66
2021/04/19 04:29:50;;;;;;;53.23;39.07;;;;;;;;;;5052938;28;20209;-66
2021/04/19 04:32:16;;;;;;;56.13;40.73;;;;;;;;;;5054268;28;20225;-67
2021/04/19 04:34:43;;;;;;;56.60;40.47;;;;;;;;;;5053204;28;20723;-68
2021/04/19 04:37:10;;;;;;;61.57;44.40;;;;;;;;;;5052400;28;20205;-66
2021/04/19 04:39:36;;;;;;;57.80;40.23;;;;;;;;;;5051484;28;20206;-67
2021/04/19 04:42:04;;;;;;;58.70;42.40;;;;;;;;;;5051596;28;20253;-67
2021/04/19 04:44:32;;;;;;;60.53;41.83;;;;;;;;;;5051743;28;20260;-67
2021/04/19 04:47:10;;;;;;;61.50;42.00;;;;;;;;;;5053392;28;20205;-67
2021/04/19 04:49:39;;;;;;;59.63;42.70;;;;;;;;;;5055484;28;20205;-67
2021/04/19 04:52:06;;;;;;;58.60;42.33;;;;;;;;;;5052987;28;20288;-67
2021/04/19 04:54:33;;;;;;;57.23;40.77;;;;;;;;;;5051921;28;20775;-67
2021/04/19 04:57:02;;;;;;;60.73;42.00;;;;;;;;;;5052529;28;20554;-66
2021/04/19 04:59:31;;;;;;;60.10;41.77;;;;;;;;;;5055003;28;20688;-68
2021/04/19 05:01:58;;;;;;;56.80;41.83;;;;;;;;;;5054964;28;20197;-68
2021/04/19 05:04:27;;;;;;;61.23;42.93;;;;;;;;;;5052860;28;20767;-67
2021/04/19 05:06:54;;;;;;;68.53;46.03;;;;;;;;;;5055487;28;20211;-68
2021/04/19 05:09:21;;;;;;;70.93;45.77;;;;;;;;;;5055152;28;20213;-65
2021/04/19 05:11:48;;;;;;;63.97;44.33;;;;;;;;;;5054619;28;20221;-65
2021/04/19 05:14:15;;;;;;;61.17;43.57;;;;;;;;;;5053038;28;20226;-65
2021/04/19 05:16:41;;;;;;;59.83;42.23;;;;;;;;;;5053420;28;20217;-65
2021/04/19 05:19:08;;;;;;;62.03;42.63;;;;;;;;;;5055471;28;20267;-65
2021/04/19 05:21:36;;;;;;;55.27;40.27;;;;;;;;;;5055374;28;20197;-64
2021/04/19 05:24:02;;;;;;;56.83;40.80;;;;;;;;;;5055703;28;20732;-65
2021/04/19 05:26:29;;;;;;;68.43;44.43;;;;;;;;;;5055375;28;20205;-64
2021/04/19 05:28:55;;;;;;;67.13;43.70;;;;;;;;;;5053939;28;20210;-66
2021/04/19 05:31:22;;;;;;;68.80;45.60;;;;;;;;;;5055131;28;20225;-65
2021/04/19 05:33:53;;;;;;;65.53;44.10;;;;;;;;;;5054931;28;20225;-65
2021/04/19 05:36:20;;;;;;;64.03;45.20;;;;;;;;;;5055138;28;20205;-65
2021/04/19 05:38:47;;;;;;;66.67;43.40;;;;;;;;;;5055783;28;20674;-66
2021/04/19 05:41:14;;;;;;;58.70;40.40;;;;;;;;;;5055736;28;20205;-66
2021/04/19 05:43:41;;;;;;;60.80;39.63;;;;;;;;;;5055648;28;20577;-66
2021/04/19 05:46:08;;;;;;;61.60;41.67;;;;;;;;;;5056431;28;20705;-66
2021/04/19 05:48:34;;;;;;;66.80;42.27;;;;;;;;;;5055344;28;20224;-67
2021/04/19 05:51:03;;;;;;;62.40;42.60;;;;;;;;;;5054375;28;20694;-67
2021/04/19 05:53:30;;;;;;;66.13;43.07;;;;;;;;;;5053565;28;20300;-66
2021/04/19 05:55:58;;;;;;;55.47;39.60;;;;;;;;;;5055324;28;20256;-65
2021/04/19 05:58:29;;;;;;;54.90;39.57;;;;;;;;;;5054694;28;20208;-65
2021/04/19 06:00:56;;;;;;;53.27;37.90;;;;;;;;;;5055268;28;20205;-66
2021/04/19 06:03:25;;;;;;;42.70;32.83;;;;;;;;;;5054853;28;20202;-66
2021/04/19 06:05:55;;;;;;;43.57;32.10;;;;;;;;;;5054723;28;20217;-66
2021/04/19 06:08:27;;;;;;;41.53;31.50;;;;;;;;;;5054576;28;20217;-66
2021/04/19 06:10:56;;;;;;;44.20;33.03;;;;;;;;;;5054566;28;20292;-65
2021/04/19 06:13:24;;;;;;;50.30;35.57;;;;;;;;;;5054568;28;20209;-66
2021/04/19 06:15:52;;;;;;;53.13;35.50;;;;;;;;;;5055110;28;20206;-66
2021/04/19 06:18:19;;;;;;;46.17;33.53;;;;;;;;;;5054375;28;20217;-67
2021/04/19 06:20:47;;;;;;;48.43;34.53;;;;;;;;;;5054523;28;20206;-66
2021/04/19 06:23:14;;;;;;;51.87;36.37;;;;;;;;;;5054647;28;20228;-66
2021/04/19 06:25:41;;;;;;;54.00;38.03;;;;;;;;;;5054525;28;20714;-67
2021/04/19 06:28:07;;;;;;;55.73;39.10;;;;;;;;;;5053887;28;20714;-66
2021/04/19 06:30:40;;;;;;;56.03;39.17;;;;;;;;;;5053594;28;20206;-66
2021/04/19 06:33:07;;;;;;;55.70;37.97;;;;;;;;;;5054293;28;20197;-66
2021/04/19 06:35:34;;;;;;;56.60;36.93;;;;;;;;;;5053758;28;20237;-66
2021/04/19 06:38:00;;;;;;;52.93;38.83;;;;;;;;;;5053806;28;20205;-66
2021/04/19 06:40:27;;;;;;;57.60;40.03;;;;;;;;;;5054059;28;20213;-66
2021/04/19 06:42:54;;;;;;;49.93;36.60;;;;;;;;;;5054013;28;20213;-66
2021/04/19 06:45:21;;;;;;;50.80;36.73;;;;;;;;;;5054132;28;20336;-66
2021/04/19 06:47:50;;;;;;;41.80;31.13;;;;;;;;;;5053978;28;20210;-66
2021/04/19 06:50:17;;;;;;;36.37;28.87;;;;;;;;;;5053640;28;20209;-66
2021/04/19 06:52:47;;;;;;;37.50;28.00;;;;;;;;;;5053997;28;20240;-67
2021/04/19 06:55:14;;;;;;;39.23;28.20;;;;;;;;;;5053994;28;20222;-66
2021/04/19 06:57:42;;;;;;;33.70;26.50;;;;;;;;;;5053862;28;20201;-66
2021/04/19 07:00:09;;;;;;;35.40;26.47;;;;;;;;;;5052664;28;20206;-66
2021/04/19 07:02:41;;;;;;;31.57;23.00;;;;;;;;;;5052132;28;20716;-66
2021/04/19 07:05:10;;;;;;;31.63;24.27;;;;;;;;;;5051738;28;20303;-66
2021/04/19 07:07:39;;;;;;;31.87;24.33;;;;;;;;;;5053503;28;20217;-66
2021/04/19 07:10:07;;;;;;;29.93;22.63;;;;;;;;;;5053129;28;20210;-66
2021/04/19 07:12:34;;;;;;;30.10;23.27;;;;;;;;;;5053523;28;20241;-66
2021/04/19 07:15:03;;;;;;;33.80;24.37;;;;;;;;;;5052448;28;20226;-67
2021/04/19 07:17:30;;;;;;;31.27;22.30;;;;;;;;;;5053517;28;20216;-66
2021/04/19 07:19:56;;;;;;;28.80;21.50;;;;;;;;;;5052924;28;20205;-66
2021/04/19 07:22:24;;;;;;;31.43;23.33;;;;;;;;;;5053516;28;20569;-65
2021/04/19 07:24:50;;;;;;;32.93;24.33;;;;;;;;;;5053699;28;20230;-66
2021/04/19 07:27:18;;;;;;;27.97;22.27;;;;;;;;;;5053303;28;20217;-65
2021/04/19 07:29:45;;;;;;;29.03;22.07;;;;;;;;;;5052980;28;20674;-66
2021/04/19 07:32:11;;;;;;;24.90;20.90;;;;;;;;;;5052991;28;20236;-66
2021/04/19 07:34:38;;;;;;;26.83;21.00;;;;;;;;;;5053063;28;20226;-67
2021/04/19 07:37:05;;;;;;;24.27;20.17;;;;;;;;;;5053239;28;20216;-66
2021/04/19 07:39:33;;;;;;;23.27;19.20;;;;;;;;;;5052999;28;20214;-66
2021/04/19 07:42:00;;;;;;;23.53;18.67;;;;;;;;;;5052675;28;20210;-67
2021/04/19 07:44:34;;;;;;;26.37;20.13;;;;;;;;;;5052973;28;20230;-66
2021/04/19 07:47:21;;;;;;;21.77;18.97;;;;;;;;;;5052986;28;20312;-66
2021/04/19 07:50:06;;;;;;;21.07;18.53;;;;;;;;;;5049255;28;20217;-66
2021/04/19 07:52:35;;;;;;;23.13;19.57;;;;;;;;;;5052803;28;20221;-65
2021/04/19 07:55:21;;;;;;;24.67;20.07;;;;;;;;;;5053067;28;20252;-66
2021/04/19 07:57:48;;;;;;;20.97;17.33;;;;;;;;;;5052844;28;20300;-65
2021/04/19 08:00:23;;;;;;;19.27;16.63;;;;;;;;;;5052543;28;20206;-66
2021/04/19 08:02:56;;;;;;;20.50;17.57;;;;;;;;;;5053446;28;20666;-66
2021/04/19 08:05:30;;;;;;;21.10;17.20;;;;;;;;;;5052532;28;20233;-66
2021/04/19 08:07:56;;;;;;;21.43;17.50;;;;;;;;;;5052435;28;20208;-66
2021/04/19 08:10:23;;;;;;;20.67;17.97;;;;;;;;;;5051422;28;20206;-66
2021/04/19 08:12:52;;;;;;;22.67;16.47;;;;;;;;;;5051141;28;20709;-66
2021/04/19 08:15:22;;;;;;;17.90;15.90;;;;;;;;;;5051034;28;20878;-66
2021/04/19 08:17:49;;;;;;;16.53;13.77;;;;;;;;;;5052476;28;20218;-66
2021/04/19 08:20:17;;;;;;;15.93;13.30;;;;;;;;;;5051792;28;20206;-66
2021/04/19 08:22:44;;;;;;;14.87;13.13;;;;;;;;;;5052622;28;20257;-66
2021/04/19 08:25:12;;;;;;;13.83;12.30;;;;;;;;;;5054150;28;20230;-67
2021/04/19 08:27:39;;;;;;;12.73;11.33;;;;;;;;;;5054603;28;20217;-66
2021/04/19 08:30:09;;;;;;;13.80;12.40;;;;;;;;;;5052218;28;20203;-66
2021/04/19 08:32:36;;;;;;;11.73;10.53;;;;;;;;;;5054250;28;20297;-67
2021/04/19 08:35:05;;;;;;;11.90;10.57;;;;;;;;;;5056340;28;20239;-67
2021/04/19 08:37:32;;;;;;;12.20;10.47;;;;;;;;;;5053869;28;20209;-66
2021/04/19 08:39:59;;;;;;;11.87;10.60;;;;;;;;;;5050882;28;20599;-66
2021/04/19 08:42:26;;;;;;;10.13;9.13;;;;;;;;;;5051892;28;20609;-67
2021/04/19 08:44:55;;;;;;;10.70;9.57;;;;;;;;;;5051932;28;20222;-66
2021/04/19 08:47:27;;;;;;;10.80;9.40;;;;;;;;;;5052068;28;20208;-66
2021/04/19 08:49:53;;;;;;;10.13;8.93;;;;;;;;;;5052186;28;20219;-67
2021/04/19 08:52:20;;;;;;;7.60;6.80;;;;;;;;;;5051594;28;20730;-66
2021/04/19 08:54:47;;;;;;;8.10;6.83;;;;;;;;;;5051554;28;20233;-66
2021/04/19 08:57:14;;;;;;;9.50;8.53;;;;;;;;;;5051849;28;20678;-65
2021/04/19 08:59:43;;;;;;;7.80;7.00;;;;;;;;;;5051569;28;20206;-66
2021/04/19 09:02:09;;;;;;;9.53;6.80;;;;;;;;;;5051708;28;20206;-66
2021/04/19 09:04:37;;;;;;;8.20;6.23;;;;;;;;;;5051863;28;20229;-66
2021/04/19 09:07:04;;;;;;;6.90;5.90;;;;;;;;;;5051964;28;20210;-66
2021/04/19 09:09:39;;;;;;;7.00;6.30;;;;;;;;;;5051501;28;20275;-66
2021/04/19 09:12:24;;;;;;;6.47;5.73;;;;;;;;;;5052023;28;20227;-66
2021/04/19 09:14:51;;;;;;;4.53;4.10;;;;;;;;;;5052121;28;20238;-66
2021/04/19 09:17:25;;;;;;;5.47;4.83;;;;;;;;;;5051955;28;20201;-66
2021/04/19 09:19:56;;;;;;;7.83;6.13;;;;;;;;;;5052863;28;20749;-66
2021/04/19 09:22:23;;;;;;;8.20;6.53;;;;;;;;;;5052008;28;20839;-67
2021/04/19 09:25:00;;;;;;;8.73;7.70;;;;;;;;;;5051863;28;20717;-66
2021/04/19 09:27:45;;;;;;;8.33;7.47;;;;;;;;;;5052459;28;20216;-67
2021/04/19 09:30:30;;;;;;;8.30;7.13;;;;;;;;;;5051855;28;20292;-67
2021/04/19 09:33:18;;;;;;;7.63;6.90;;;;;;;;;;5049830;28;20770;-66
2021/04/19 09:35:46;;;;;;;8.93;7.30;;;;;;;;;;5051632;28;20199;-66
2021/04/19 09:38:13;;;;;;;8.70;7.80;;;;;;;;;;5051071;28;20209;-65
2021/04/19 09:40:47;;;;;;;7.80;6.87;;;;;;;;;;5051376;28;20225;-66
2021/04/19 09:43:13;;;;;;;8.20;7.00;;;;;;;;;;5050254;28;20241;-65
2021/04/19 09:45:54;;;;;;;7.87;7.07;;;;;;;;;;5051571;28;20229;-66
2021/04/19 09:48:45;;;;;;;8.30;6.87;;;;;;;;;;5051223;28;20205;-66
2021/04/19 09:51:14;;;;;;;6.87;6.17;;;;;;;;;;5040866;28;20631;-66
2021/04/19 09:53:41;;;;;;;8.67;7.07;;;;;;;;;;5051136;28;20253;-66
2021/04/19 09:56:08;;;;;;;7.40;6.10;;;;;;;;;;5051092;28;20674;-66
2021/04/19 09:58:37;;;;;;;6.47;5.30;;;;;;;;;;5050773;28;20733;-65
2021/04/19 10:01:04;;;;;;;6.03;5.43;;;;;;;;;;5051199;28;20202;-66
2021/04/19 10:03:31;;;;;;;6.87;5.17;;;;;;;;;;5051187;28;20296;-66
2021/04/19 10:06:00;;;;;;;6.17;5.57;;;;;;;;;;5054352;28;20309;-66
2021/04/19 10:08:28;;;;;;;6.67;6.03;;;;;;;;;;5054496;28;20579;-65
2021/04/19 10:10:55;;;;;;;6.80;5.27;;;;;;;;;;5054407;28;20211;-64
2021/04/19 10:13:28;;;;;;;6.23;5.40;;;;;;;;;;5054282;28;20701;-64
2021/04/19 10:16:02;;;;;;;5.57;4.97;;;;;;;;;;5054822;28;20245;-65
2021/04/19 10:18:30;;;;;;;7.30;6.00;;;;;;;;;;5053974;28;20225;-65
2021/04/19 10:20:56;;;;;;;6.93;4.90;;;;;;;;;;5054537;28;20558;-65
2021/04/19 10:23:31;;;;;;;5.90;5.27;;;;;;;;;;5053994;28;20197;-64
2021/04/19 10:25:58;;;;;;;5.13;4.60;;;;;;;;;;5054725;28;20587;-65
2021/04/19 10:28:29;;;;;;;5.10;4.50;;;;;;;;;;5054003;28;20206;-66
2021/04/19 10:31:08;;;;;;;6.10;4.67;;;;;;;;;;5054477;28;20202;-65
2021/04/19 10:33:35;;;;;;;6.83;4.67;;;;;;;;;;5053787;28;20212;-66
2021/04/19 10:36:10;;;;;;;5.83;4.90;;;;;;;;;;5054191;28;20213;-65
2021/04/19 10:38:37;;;;;;;5.80;5.20;;;;;;;;;;5053889;28;20611;-67
2021/04/19 10:41:04;;;;;;;7.67;5.27;;;;;;;;;;5054486;28;20225;-67
2021/04/19 10:43:31;;;;;;;5.97;5.20;;;;;;;;;;5054531;28;20205;-67
2021/04/19 10:45:57;;;;;;;6.07;4.73;;;;;;;;;;5053779;28;20678;-67
2021/04/19 10:48:25;;;;;;;5.33;4.37;;;;;;;;;;5053578;28;20205;-64
2021/04/19 10:50:52;;;;;;;9.50;6.30;;;;;;;;;;5054058;28;20666;-67
2021/04/19 10:53:31;;;;;;;5.43;4.50;;;;;;;;;;5054423;28;20306;-67
2021/04/19 10:55:58;;;;;;;6.23;5.63;;;;;;;;;;5054032;28;20212;-67
2021/04/19 10:58:26;;;;;;;6.93;5.10;;;;;;;;;;5053915;28;20792;-67
2021/04/19 11:00:52;;;;;;;9.47;7.13;;;;;;;;;;5053719;28;20209;-67
2021/04/19 11:03:19;;;;;;;9.47;8.37;;;;;;;;;;5053776;28;20655;-67
2021/04/19 11:05:45;;;;;;;14.47;9.57;;;;;;;;;;5054158;28;20212;-68
2021/04/19 11:08:12;;;;;;;11.23;10.03;;;;;;;;;;5053913;28;20703;-67
2021/04/19 11:10:38;;;;;;;12.57;10.90;;;;;;;;;;5053492;28;20201;-67
2021/04/19 11:13:06;;;;;;;11.63;10.13;;;;;;;;;;5053398;28;20379;-64
2021/04/19 11:15:35;;;;;;;13.43;11.17;;;;;;;;;;5053045;28;20248;-64
2021/04/19 11:18:02;;;;;;;12.67;10.60;;;;;;;;;;5053101;28;20262;-65
2021/04/19 11:20:29;;;;;;;15.03;10.60;;;;;;;;;;5053263;28;20614;-65
2021/04/19 11:22:58;;;;;;;14.90;10.93;;;;;;;;;;5053281;28;20209;-65
2021/04/19 11:25:26;;;;;;;14.07;10.23;;;;;;;;;;5053620;28;20226;-68
2021/04/19 11:27:54;;;;;;;13.07;9.43;;;;;;;;;;5053269;28;20642;-65
2021/04/19 11:30:24;;;;;;;11.53;8.40;;;;;;;;;;5053013;28;20696;-65
2021/04/19 11:33:01;;;;;;;11.53;9.43;;;;;;;;;;5053635;28;20232;-65
2021/04/19 11:35:34;;;;;;;12.03;9.40;;;;;;;;;;5053402;28;20266;-67
2021/04/19 11:38:01;;;;;;;12.27;9.80;;;;;;;;;;5061737;28;20262;-67
2021/04/19 11:40:29;;;;;;;11.63;9.87;;;;;;;;;;5051505;28;20346;-70
2021/04/19 11:42:56;;;;;;;12.37;9.53;;;;;;;;;;5054192;28;20213;-72
2021/04/19 11:45:24;;;;;;;11.53;9.63;;;;;;;;;;5054994;28;20221;-70
2021/04/19 11:47:51;;;;;;;10.80;9.60;;;;;;;;;;5064106;28;20204;-68
2021/04/19 11:50:18;;;;;;;12.33;9.50;;;;;;;;;;5062988;28;20271;-69
2021/04/19 11:52:45;;;;;;;11.60;9.03;;;;;;;;;;5052089;28;20221;-70
2021/04/19 11:55:13;;;;;;;9.17;8.10;;;;;;;;;;5052679;28;20230;-70
2021/04/19 11:57:41;;;;;;;15.30;12.17;;;;;;;;;;5052370;28;20201;-68
2021/04/19 12:00:08;;;;;;;12.53;8.70;;;;;;;;;;5052012;28;20259;-70
2021/04/19 12:02:36;;;;;;;11.13;8.90;;;;;;;;;;5052221;28;20283;-68
2021/04/19 12:05:02;;;;;;;10.73;8.10;;;;;;;;;;5051754;28;20225;-68
2021/04/19 12:07:30;;;;;;;11.87;8.23;;;;;;;;;;5052022;28;20323;-72
2021/04/19 12:09:56;;;;;;;9.73;8.50;;;;;;;;;;5051630;28;20695;-69
2021/04/19 12:12:23;;;;;;;10.17;8.83;;;;;;;;;;5062251;28;20228;-66
2021/04/19 12:14:49;;;;;;;10.67;9.20;;;;;;;;;;5071661;28;20213;-67
2021/04/19 12:17:16;;;;;;;11.27;8.80;;;;;;;;;;5071798;28;20211;-68
2021/04/19 12:19:42;;;;;;;11.27;9.43;;;;;;;;;;5071785;28;20216;-66
2021/04/19 12:22:09;;;;;;;10.80;8.77;;;;;;;;;;5071265;28;20202;-66
2021/04/19 12:24:36;;;;;;;13.13;8.60;;;;;;;;;;5071942;28;20230;-69
2021/04/19 12:27:03;;;;;;;13.33;9.53;;;;;;;;;;5073063;28;20210;-67
2021/04/19 12:29:29;;;;;;;12.97;9.63;;;;;;;;;;5074841;28;20218;-68
2021/04/19 12:31:56;;;;;;;14.63;11.43;;;;;;;;;;5072957;28;20234;-67
2021/04/19 12:34:22;;;;;;;12.47;10.63;;;;;;;;;;5076512;28;20231;-66
2021/04/19 12:36:51;;;;;;;11.70;9.90;;;;;;;;;;5078989;28;20243;-65
2021/04/19 12:39:18;;;;;;;12.07;8.17;;;;;;;;;;5078497;28;20281;-65
2021/04/19 12:41:45;;;;;;;8.90;7.30;;;;;;;;;;5077151;28;20728;-65
2021/04/19 12:44:12;;;;;;;8.77;7.40;;;;;;;;;;5075067;28;20235;-65
2021/04/19 12:46:38;;;;;;;8.67;6.93;;;;;;;;;;5074196;28;20694;-68
2021/04/19 12:49:05;;;;;;;7.83;6.80;;;;;;;;;;5074830;28;20219;-65
2021/04/19 12:51:32;;;;;;;14.33;10.60;;;;;;;;;;5071250;28;20219;-66
2021/04/19 13:00:07;;;;;;;10.67;8.60;;;;;;;;;;5051349;28;20276;-68
2021/04/19 13:02:33;;;;;;;9.27;8.07;;;;;;;;;;5051449;28;20261;-68
2021/04/19 13:05:00;;;;;;;11.70;9.73;;;;;;;;;;5051243;28;20228;-72
2021/04/19 13:07:26;;;;;;;11.50;9.47;;;;;;;;;;5051628;28;20211;-71
2021/04/19 13:09:53;;;;;;;12.23;9.67;;;;;;;;;;5051176;28;20210;-72
2021/04/19 13:12:19;;;;;;;10.10;8.53;;;;;;;;;;5051263;28;20290;-72
2021/04/19 13:14:46;;;;;;;16.07;9.90;;;;;;;;;;5051409;28;20365;-70
2021/04/19 13:17:13;;;;;;;14.33;10.50;;;;;;;;;;5052177;28;20271;-70
2021/04/19 13:19:40;;;;;;;14.13;11.87;;;;;;;;;;5051395;28;20275;-73
2021/04/19 13:22:06;;;;;;;12.93;11.00;;;;;;;;;;5051702;28;20205;-71
2021/04/19 13:24:33;;;;;;;14.83;11.67;;;;;;;;;;5051869;28;20226;-67
2021/04/19 13:27:00;;;;;;;14.33;11.70;;;;;;;;;;5050774;28;20209;-66
2021/04/19 13:29:26;;;;;;;14.73;12.10;;;;;;;;;;5051053;28;20232;-66
2021/04/19 13:31:53;;;;;;;15.53;12.30;;;;;;;;;;5051108;28;20312;-67
2021/04/19 13:34:21;;;;;;;15.00;12.77;;;;;;;;;;5051209;28;20237;-67
2021/04/19 13:36:47;;;;;;;14.17;12.33;;;;;;;;;;5051036;28;20213;-67
2021/04/19 13:39:14;;;;;;;15.60;12.00;;;;;;;;;;5052910;28;20298;-67
2021/04/19 13:41:41;;;;;;;15.13;12.37;;;;;;;;;;5055502;28;20209;-67
2021/04/19 13:44:07;;;;;;;15.80;12.80;;;;;;;;;;5054628;28;20233;-67
2021/04/19 13:46:34;;;;;;;13.97;10.67;;;;;;;;;;5054685;28;20217;-65
2021/04/19 13:49:02;;;;;;;13.47;11.00;;;;;;;;;;5053898;28;20253;-69
2021/04/19 13:51:30;;;;;;;12.67;10.37;;;;;;;;;;5055955;28;20213;-69
2021/04/19 13:53:56;;;;;;;13.03;9.70;;;;;;;;;;5055732;28;20236;-68
2021/04/19 13:56:23;;;;;;;12.07;9.53;;;;;;;;;;5055211;28;20347;-68
2021/04/19 13:58:49;;;;;;;14.60;9.03;;;;;;;;;;5055685;28;20266;-69
2021/04/19 14:01:16;;;;;;;12.37;9.73;;;;;;;;;;5054650;28;20763;-64
2021/04/19 14:03:42;;;;;;;11.07;9.40;;;;;;;;;;5054629;28;20222;-65
2021/04/19 14:06:09;;;;;;;11.23;8.97;;;;;;;;;;5069346;28;20242;-66
2021/04/19 14:08:37;;;;;;;10.07;8.50;;;;;;;;;;5053401;28;20210;-64
2021/04/19 14:11:03;;;;;;;11.77;8.70;;;;;;;;;;5054517;28;20213;-65
2021/04/19 14:13:30;;;;;;;9.90;8.53;;;;;;;;;;5053647;28;20714;-65
2021/04/19 14:15:56;;;;;;;10.00;7.87;;;;;;;;;;5054229;28;20573;-64
2021/04/19 14:18:23;;;;;;;9.30;7.93;;;;;;;;;;5054287;28;20209;-64
2021/04/19 14:20:49;;;;;;;10.07;8.40;;;;;;;;;;5053667;28;20667;-64
2021/04/19 14:23:16;;;;;;;13.30;8.93;;;;;;;;;;5054657;28;20272;-68
2021/04/19 14:25:43;;;;;;;11.17;7.57;;;;;;;;;;5054330;28;20229;-68
2021/04/19 14:28:09;;;;;;;10.07;8.00;;;;;;;;;;5054468;28;20309;-68
2021/04/19 14:30:36;;;;;;;9.13;7.83;;;;;;;;;;5054517;28;20209;-69
2021/04/19 14:33:02;;;;;;;9.70;8.03;;;;;;;;;;5053999;28;20232;-68
2021/04/19 14:35:29;;;;;;;14.20;8.20;;;;;;;;;;5053725;28;20222;-67